sensor_id;sensor_type;location;lat;lon;timestamp;P1;durP1;ratioP1;P2;durP2;ratioP2
54241;SDS011;40156;51.080;17.082;2023-08-01T00:01:05;3.38;;;1.50;;
54241;SDS011;40156;51.080;17.082;2023-08-01T00:03:33;2.03;;;1.58;;
54241;SDS011;40156;51.080;17.082;2023-08-01T00:06:00;3.38;;;1.52;;
54241;SDS011;40156;51.080;17.082;2023-08-01T00:08:27;3.35;;;2.10;;
54241;SDS011;40156;51.080;17.082;2023-08-01T00:10:55;4.18;;;1.60;;
54241;SDS011;40156;51.080;17.082;2023-08-01T00:13:22;4.18;;;2.00;;
54241;SDS011;40156;51.080;17.082;2023-08-01T00:15:50;3.15;;;1.67;;
54241;SDS011;40156;51.080;17.082;2023-08-01T00:18:33;4.78;;;1.88;;
54241;SDS011;40156;51.080;17.082;2023-08-01T00:21:01;2.38;;;1.83;;
54241;SDS011;40156;51.080;17.082;2023-08-01T00:23:29;2.97;;;1.75;;
54241;SDS011;40156;51.080;17.082;2023-08-01T00:25:56;5.30;;;2.08;;
54241;SDS011;40156;51.080;17.082;2023-08-01T00:28:24;3.80;;;1.75;;
54241;SDS011;40156;51.080;17.082;2023-08-01T00:31:00;3.78;;;2.08;;
54241;SDS011;40156;51.080;17.082;2023-08-01T00:33:28;7.00;;;2.00;;
54241;SDS011;40156;51.080;17.082;2023-08-01T00:35:58;3.80;;;2.00;;
54241;SDS011;40156;51.080;17.082;2023-08-01T00:38:26;3.22;;;1.70;;
54241;SDS011;40156;51.080;17.082;2023-08-01T00:40:53;4.90;;;2.25;;
54241;SDS011;40156;51.080;17.082;2023-08-01T00:43:21;3.47;;;2.03;;
54241;SDS011;40156;51.080;17.082;2023-08-01T00:45:48;4.40;;;1.80;;
54241;SDS011;40156;51.080;17.082;2023-08-01T00:48:15;2.90;;;1.58;;
54241;SDS011;40156;51.080;17.082;2023-08-01T00:50:43;3.47;;;1.77;;
54241;SDS011;40156;51.080;17.082;2023-08-01T00:53:10;6.32;;;2.00;;
54241;SDS011;40156;51.080;17.082;2023-08-01T00:55:39;3.42;;;1.77;;
54241;SDS011;40156;51.080;17.082;2023-08-01T00:58:06;3.45;;;2.00;;
54241;SDS011;40156;51.080;17.082;2023-08-01T01:00:34;4.15;;;2.10;;
54241;SDS011;40156;51.080;17.082;2023-08-01T01:03:02;3.17;;;1.60;;
54241;SDS011;40156;51.080;17.082;2023-08-01T01:05:34;5.10;;;1.58;;
54241;SDS011;40156;51.080;17.082;2023-08-01T01:08:02;3.47;;;1.95;;
54241;SDS011;40156;51.080;17.082;2023-08-01T01:10:30;5.28;;;2.08;;
54241;SDS011;40156;51.080;17.082;2023-08-01T01:12:57;4.63;;;2.10;;
54241;SDS011;40156;51.080;17.082;2023-08-01T01:15:25;7.45;;;1.90;;
54241;SDS011;40156;51.080;17.082;2023-08-01T01:17:52;1.95;;;1.67;;
54241;SDS011;40156;51.080;17.082;2023-08-01T01:20:22;4.03;;;2.00;;
54241;SDS011;40156;51.080;17.082;2023-08-01T01:22:51;5.03;;;2.13;;
54241;SDS011;40156;51.080;17.082;2023-08-01T01:25:20;4.88;;;2.20;;
54241;SDS011;40156;51.080;17.082;2023-08-01T01:27:48;4.60;;;2.03;;
54241;SDS011;40156;51.080;17.082;2023-08-01T01:30:16;3.42;;;1.95;;
54241;SDS011;40156;51.080;17.082;2023-08-01T01:32:44;7.15;;;2.45;;
54241;SDS011;40156;51.080;17.082;2023-08-01T01:35:12;4.20;;;1.90;;
54241;SDS011;40156;51.080;17.082;2023-08-01T01:37:40;6.72;;;2.03;;
54241;SDS011;40156;51.080;17.082;2023-08-01T01:40:07;2.25;;;1.67;;
54241;SDS011;40156;51.080;17.082;2023-08-01T01:42:36;3.83;;;1.80;;
54241;SDS011;40156;51.080;17.082;2023-08-01T01:45:03;3.95;;;1.95;;
54241;SDS011;40156;51.080;17.082;2023-08-01T01:47:31;5.22;;;1.88;;
54241;SDS011;40156;51.080;17.082;2023-08-01T01:49:58;3.28;;;1.92;;
54241;SDS011;40156;51.080;17.082;2023-08-01T01:52:26;4.63;;;2.00;;
54241;SDS011;40156;51.080;17.082;2023-08-01T01:54:53;3.78;;;1.95;;
54241;SDS011;40156;51.080;17.082;2023-08-01T01:57:21;4.05;;;1.90;;
54241;SDS011;40156;51.080;17.082;2023-08-01T01:59:48;2.60;;;2.15;;
54241;SDS011;40156;51.080;17.082;2023-08-01T02:02:16;3.35;;;2.00;;
54241;SDS011;40156;51.080;17.082;2023-08-01T02:04:45;4.30;;;2.10;;
54241;SDS011;40156;51.080;17.082;2023-08-01T02:07:13;2.92;;;2.03;;
54241;SDS011;40156;51.080;17.082;2023-08-01T02:09:41;3.92;;;1.90;;
54241;SDS011;40156;51.080;17.082;2023-08-01T02:12:08;3.97;;;1.90;;
54241;SDS011;40156;51.080;17.082;2023-08-01T02:14:36;2.15;;;1.60;;
54241;SDS011;40156;51.080;17.082;2023-08-01T02:17:03;3.75;;;1.77;;
54241;SDS011;40156;51.080;17.082;2023-08-01T02:19:31;3.00;;;1.85;;
54241;SDS011;40156;51.080;17.082;2023-08-01T02:21:58;3.63;;;1.80;;
54241;SDS011;40156;51.080;17.082;2023-08-01T02:24:26;6.82;;;1.80;;
54241;SDS011;40156;51.080;17.082;2023-08-01T02:26:53;3.33;;;1.85;;
54241;SDS011;40156;51.080;17.082;2023-08-01T02:29:21;3.90;;;1.92;;
54241;SDS011;40156;51.080;17.082;2023-08-01T02:31:48;2.03;;;1.75;;
54241;SDS011;40156;51.080;17.082;2023-08-01T02:34:16;5.43;;;1.85;;
54241;SDS011;40156;51.080;17.082;2023-08-01T02:36:43;2.60;;;1.90;;
54241;SDS011;40156;51.080;17.082;2023-08-01T02:39:11;3.65;;;1.80;;
54241;SDS011;40156;51.080;17.082;2023-08-01T02:41:38;5.88;;;1.90;;
54241;SDS011;40156;51.080;17.082;2023-08-01T02:44:06;3.85;;;1.85;;
54241;SDS011;40156;51.080;17.082;2023-08-01T02:46:33;3.47;;;1.90;;
54241;SDS011;40156;51.080;17.082;2023-08-01T02:49:01;7.32;;;1.90;;
54241;SDS011;40156;51.080;17.082;2023-08-01T02:51:28;2.45;;;2.00;;
54241;SDS011;40156;51.080;17.082;2023-08-01T02:53:56;4.47;;;1.90;;
54241;SDS011;40156;51.080;17.082;2023-08-01T02:56:23;3.35;;;1.90;;
54241;SDS011;40156;51.080;17.082;2023-08-01T02:58:51;3.47;;;1.83;;
54241;SDS011;40156;51.080;17.082;2023-08-01T03:01:18;2.38;;;1.73;;
54241;SDS011;40156;51.080;17.082;2023-08-01T03:03:46;4.43;;;2.33;;
54241;SDS011;40156;51.080;17.082;2023-08-01T03:06:14;3.70;;;2.00;;
54241;SDS011;40156;51.080;17.082;2023-08-01T03:08:41;4.10;;;2.13;;
54241;SDS011;40156;51.080;17.082;2023-08-01T03:11:09;5.28;;;1.70;;
54241;SDS011;40156;51.080;17.082;2023-08-01T03:13:37;5.82;;;1.73;;
54241;SDS011;40156;51.080;17.082;2023-08-01T03:16:04;3.03;;;1.95;;
54241;SDS011;40156;51.080;17.082;2023-08-01T03:18:32;2.97;;;1.80;;
54241;SDS011;40156;51.080;17.082;2023-08-01T03:21:00;3.03;;;1.80;;
54241;SDS011;40156;51.080;17.082;2023-08-01T03:23:27;3.88;;;2.00;;
54241;SDS011;40156;51.080;17.082;2023-08-01T03:25:55;3.78;;;2.17;;
54241;SDS011;40156;51.080;17.082;2023-08-01T03:28:23;3.03;;;1.92;;
54241;SDS011;40156;51.080;17.082;2023-08-01T03:30:51;5.15;;;2.33;;
54241;SDS011;40156;51.080;17.082;2023-08-01T03:33:19;3.85;;;1.77;;
54241;SDS011;40156;51.080;17.082;2023-08-01T03:35:46;6.35;;;2.30;;
54241;SDS011;40156;51.080;17.082;2023-08-01T03:38:14;2.95;;;1.65;;
54241;SDS011;40156;51.080;17.082;2023-08-01T03:40:41;2.28;;;1.85;;
54241;SDS011;40156;51.080;17.082;2023-08-01T03:43:09;4.43;;;2.30;;
54241;SDS011;40156;51.080;17.082;2023-08-01T03:45:36;3.60;;;2.00;;
54241;SDS011;40156;51.080;17.082;2023-08-01T03:48:04;3.72;;;1.95;;
54241;SDS011;40156;51.080;17.082;2023-08-01T03:50:32;4.82;;;2.00;;
54241;SDS011;40156;51.080;17.082;2023-08-01T03:52:59;3.38;;;1.98;;
54241;SDS011;40156;51.080;17.082;2023-08-01T03:55:27;2.60;;;1.70;;
54241;SDS011;40156;51.080;17.082;2023-08-01T03:57:54;4.22;;;2.20;;
54241;SDS011;40156;51.080;17.082;2023-08-01T04:00:22;3.03;;;1.92;;
54241;SDS011;40156;51.080;17.082;2023-08-01T04:02:49;2.92;;;1.77;;
54241;SDS011;40156;51.080;17.082;2023-08-01T04:05:17;3.80;;;1.70;;
54241;SDS011;40156;51.080;17.082;2023-08-01T04:07:44;4.15;;;1.75;;
54241;SDS011;40156;51.080;17.082;2023-08-01T04:10:12;2.67;;;1.92;;
54241;SDS011;40156;51.080;17.082;2023-08-01T04:12:39;6.13;;;2.20;;
54241;SDS011;40156;51.080;17.082;2023-08-01T04:15:07;4.93;;;2.20;;
54241;SDS011;40156;51.080;17.082;2023-08-01T04:17:34;5.15;;;2.30;;
54241;SDS011;40156;51.080;17.082;2023-08-01T04:20:02;3.97;;;2.17;;
54241;SDS011;40156;51.080;17.082;2023-08-01T04:22:29;3.92;;;2.30;;
54241;SDS011;40156;51.080;17.082;2023-08-01T04:24:57;4.95;;;2.22;;
54241;SDS011;40156;51.080;17.082;2023-08-01T04:27:24;6.47;;;2.35;;
54241;SDS011;40156;51.080;17.082;2023-08-01T04:29:52;3.85;;;2.10;;
54241;SDS011;40156;51.080;17.082;2023-08-01T04:32:19;4.35;;;2.40;;
54241;SDS011;40156;51.080;17.082;2023-08-01T04:34:47;3.65;;;2.40;;
54241;SDS011;40156;51.080;17.082;2023-08-01T04:37:14;3.50;;;2.40;;
54241;SDS011;40156;51.080;17.082;2023-08-01T04:39:42;4.20;;;2.35;;
54241;SDS011;40156;51.080;17.082;2023-08-01T04:42:09;4.80;;;2.78;;
54241;SDS011;40156;51.080;17.082;2023-08-01T04:44:37;5.28;;;2.67;;
54241;SDS011;40156;51.080;17.082;2023-08-01T04:47:04;4.82;;;2.55;;
54241;SDS011;40156;51.080;17.082;2023-08-01T04:49:32;12.52;;;3.00;;
54241;SDS011;40156;51.080;17.082;2023-08-01T04:52:00;5.55;;;3.08;;
54241;SDS011;40156;51.080;17.082;2023-08-01T04:54:27;3.88;;;2.45;;
54241;SDS011;40156;51.080;17.082;2023-08-01T04:56:55;5.50;;;2.60;;
54241;SDS011;40156;51.080;17.082;2023-08-01T04:59:22;3.88;;;2.80;;
54241;SDS011;40156;51.080;17.082;2023-08-01T05:01:50;4.95;;;2.83;;
54241;SDS011;40156;51.080;17.082;2023-08-01T05:04:17;6.55;;;3.20;;
54241;SDS011;40156;51.080;17.082;2023-08-01T05:06:45;4.53;;;2.85;;
54241;SDS011;40156;51.080;17.082;2023-08-01T05:09:12;4.78;;;3.45;;
54241;SDS011;40156;51.080;17.082;2023-08-01T05:11:40;5.35;;;3.03;;
54241;SDS011;40156;51.080;17.082;2023-08-01T05:14:07;7.05;;;3.05;;
54241;SDS011;40156;51.080;17.082;2023-08-01T05:16:34;6.70;;;3.63;;
54241;SDS011;40156;51.080;17.082;2023-08-01T05:19:02;6.63;;;4.00;;
54241;SDS011;40156;51.080;17.082;2023-08-01T05:21:30;7.25;;;4.30;;
54241;SDS011;40156;51.080;17.082;2023-08-01T05:23:57;7.72;;;3.20;;
54241;SDS011;40156;51.080;17.082;2023-08-01T05:26:25;6.15;;;3.10;;
54241;SDS011;40156;51.080;17.082;2023-08-01T05:28:52;4.35;;;2.78;;
54241;SDS011;40156;51.080;17.082;2023-08-01T05:31:20;5.47;;;3.15;;
54241;SDS011;40156;51.080;17.082;2023-08-01T05:33:47;6.38;;;3.10;;
54241;SDS011;40156;51.080;17.082;2023-08-01T05:36:14;4.97;;;2.78;;
54241;SDS011;40156;51.080;17.082;2023-08-01T05:38:42;5.18;;;2.83;;
54241;SDS011;40156;51.080;17.082;2023-08-01T05:41:09;4.93;;;2.90;;
54241;SDS011;40156;51.080;17.082;2023-08-01T05:43:37;5.80;;;3.45;;
54241;SDS011;40156;51.080;17.082;2023-08-01T05:46:04;5.85;;;3.05;;
54241;SDS011;40156;51.080;17.082;2023-08-01T05:48:32;6.80;;;3.30;;
54241;SDS011;40156;51.080;17.082;2023-08-01T05:50:59;7.57;;;3.80;;
54241;SDS011;40156;51.080;17.082;2023-08-01T05:53:27;8.48;;;3.42;;
54241;SDS011;40156;51.080;17.082;2023-08-01T05:55:55;6.20;;;3.53;;
54241;SDS011;40156;51.080;17.082;2023-08-01T05:58:22;12.82;;;3.00;;
54241;SDS011;40156;51.080;17.082;2023-08-01T06:00:50;7.63;;;2.95;;
54241;SDS011;40156;51.080;17.082;2023-08-01T06:03:17;4.60;;;3.20;;
54241;SDS011;40156;51.080;17.082;2023-08-01T06:05:45;4.68;;;3.20;;
54241;SDS011;40156;51.080;17.082;2023-08-01T06:08:13;4.22;;;2.72;;
54241;SDS011;40156;51.080;17.082;2023-08-01T06:10:40;4.57;;;2.67;;
54241;SDS011;40156;51.080;17.082;2023-08-01T06:13:08;4.30;;;2.92;;
54241;SDS011;40156;51.080;17.082;2023-08-01T06:15:35;3.65;;;2.65;;
54241;SDS011;40156;51.080;17.082;2023-08-01T06:18:03;5.63;;;3.13;;
54241;SDS011;40156;51.080;17.082;2023-08-01T06:20:30;4.50;;;3.05;;
54241;SDS011;40156;51.080;17.082;2023-08-01T06:22:58;4.07;;;3.03;;
54241;SDS011;40156;51.080;17.082;2023-08-01T06:25:26;6.15;;;3.47;;
54241;SDS011;40156;51.080;17.082;2023-08-01T06:27:54;5.68;;;2.58;;
54241;SDS011;40156;51.080;17.082;2023-08-01T06:30:21;5.03;;;2.78;;
54241;SDS011;40156;51.080;17.082;2023-08-01T06:32:49;5.68;;;3.30;;
54241;SDS011;40156;51.080;17.082;2023-08-01T06:35:16;4.43;;;3.13;;
54241;SDS011;40156;51.080;17.082;2023-08-01T06:37:44;6.07;;;3.17;;
54241;SDS011;40156;51.080;17.082;2023-08-01T06:40:11;7.95;;;3.47;;
54241;SDS011;40156;51.080;17.082;2023-08-01T06:42:39;7.40;;;3.47;;
54241;SDS011;40156;51.080;17.082;2023-08-01T06:45:06;5.95;;;2.85;;
54241;SDS011;40156;51.080;17.082;2023-08-01T06:47:34;5.75;;;3.30;;
54241;SDS011;40156;51.080;17.082;2023-08-01T06:50:04;6.50;;;3.35;;
54241;SDS011;40156;51.080;17.082;2023-08-01T06:52:32;4.82;;;3.30;;
54241;SDS011;40156;51.080;17.082;2023-08-01T06:54:59;5.03;;;3.00;;
54241;SDS011;40156;51.080;17.082;2023-08-01T06:57:27;4.05;;;2.95;;
54241;SDS011;40156;51.080;17.082;2023-08-01T06:59:54;4.80;;;3.22;;
54241;SDS011;40156;51.080;17.082;2023-08-01T07:02:22;4.38;;;3.28;;
54241;SDS011;40156;51.080;17.082;2023-08-01T07:04:49;7.35;;;3.38;;
54241;SDS011;40156;51.080;17.082;2023-08-01T07:07:17;7.25;;;4.10;;
54241;SDS011;40156;51.080;17.082;2023-08-01T07:09:44;5.40;;;3.30;;
54241;SDS011;40156;51.080;17.082;2023-08-01T07:12:12;4.95;;;3.72;;
54241;SDS011;40156;51.080;17.082;2023-08-01T07:14:39;5.50;;;3.55;;
54241;SDS011;40156;51.080;17.082;2023-08-01T07:17:07;6.43;;;3.95;;
54241;SDS011;40156;51.080;17.082;2023-08-01T07:19:34;7.90;;;3.50;;
54241;SDS011;40156;51.080;17.082;2023-08-01T07:22:02;6.40;;;3.63;;
54241;SDS011;40156;51.080;17.082;2023-08-01T07:24:29;6.47;;;3.78;;
54241;SDS011;40156;51.080;17.082;2023-08-01T07:26:57;7.22;;;3.70;;
54241;SDS011;40156;51.080;17.082;2023-08-01T07:29:24;6.82;;;4.43;;
54241;SDS011;40156;51.080;17.082;2023-08-01T07:31:52;6.68;;;3.67;;
54241;SDS011;40156;51.080;17.082;2023-08-01T07:34:19;6.32;;;3.85;;
54241;SDS011;40156;51.080;17.082;2023-08-01T07:36:47;7.25;;;4.07;;
54241;SDS011;40156;51.080;17.082;2023-08-01T07:39:15;8.18;;;3.33;;
54241;SDS011;40156;51.080;17.082;2023-08-01T07:41:43;5.05;;;3.65;;
54241;SDS011;40156;51.080;17.082;2023-08-01T07:44:10;5.35;;;3.40;;
54241;SDS011;40156;51.080;17.082;2023-08-01T07:46:38;7.00;;;3.80;;
54241;SDS011;40156;51.080;17.082;2023-08-01T07:49:06;6.82;;;3.33;;
54241;SDS011;40156;51.080;17.082;2023-08-01T07:51:34;5.18;;;3.08;;
54241;SDS011;40156;51.080;17.082;2023-08-01T07:54:01;4.57;;;2.92;;
54241;SDS011;40156;51.080;17.082;2023-08-01T07:56:29;4.50;;;2.60;;
54241;SDS011;40156;51.080;17.082;2023-08-01T07:58:56;5.55;;;2.70;;
54241;SDS011;40156;51.080;17.082;2023-08-01T08:01:23;4.43;;;2.60;;
54241;SDS011;40156;51.080;17.082;2023-08-01T08:03:51;6.25;;;2.53;;
54241;SDS011;40156;51.080;17.082;2023-08-01T08:06:19;5.53;;;2.90;;
54241;SDS011;40156;51.080;17.082;2023-08-01T08:08:46;5.45;;;3.13;;
54241;SDS011;40156;51.080;17.082;2023-08-01T08:11:14;7.40;;;3.13;;
54241;SDS011;40156;51.080;17.082;2023-08-01T08:13:42;4.55;;;2.63;;
54241;SDS011;40156;51.080;17.082;2023-08-01T08:16:09;5.40;;;2.40;;
54241;SDS011;40156;51.080;17.082;2023-08-01T08:18:37;6.55;;;3.00;;
54241;SDS011;40156;51.080;17.082;2023-08-01T08:21:04;4.68;;;3.00;;
54241;SDS011;40156;51.080;17.082;2023-08-01T08:23:32;4.47;;;3.35;;
54241;SDS011;40156;51.080;17.082;2023-08-01T08:25:59;4.25;;;2.63;;
54241;SDS011;40156;51.080;17.082;2023-08-01T08:28:31;5.18;;;2.72;;
54241;SDS011;40156;51.080;17.082;2023-08-01T08:30:59;4.65;;;2.53;;
54241;SDS011;40156;51.080;17.082;2023-08-01T08:33:26;5.05;;;2.90;;
54241;SDS011;40156;51.080;17.082;2023-08-01T08:35:54;5.45;;;2.95;;
54241;SDS011;40156;51.080;17.082;2023-08-01T08:38:22;6.70;;;3.00;;
54241;SDS011;40156;51.080;17.082;2023-08-01T08:40:55;5.55;;;2.90;;
54241;SDS011;40156;51.080;17.082;2023-08-01T08:43:26;5.78;;;3.30;;
54241;SDS011;40156;51.080;17.082;2023-08-01T08:45:56;4.78;;;2.50;;
54241;SDS011;40156;51.080;17.082;2023-08-01T08:48:24;5.50;;;3.10;;
54241;SDS011;40156;51.080;17.082;2023-08-01T08:50:52;7.80;;;3.00;;
54241;SDS011;40156;51.080;17.082;2023-08-01T08:53:21;7.18;;;2.85;;
54241;SDS011;40156;51.080;17.082;2023-08-01T08:55:49;4.25;;;2.60;;
54241;SDS011;40156;51.080;17.082;2023-08-01T08:58:16;6.70;;;3.22;;
54241;SDS011;40156;51.080;17.082;2023-08-01T09:00:44;4.13;;;2.65;;
54241;SDS011;40156;51.080;17.082;2023-08-01T09:03:12;6.55;;;3.45;;
54241;SDS011;40156;51.080;17.082;2023-08-01T09:05:40;4.45;;;2.75;;
54241;SDS011;40156;51.080;17.082;2023-08-01T09:08:13;6.80;;;3.47;;
54241;SDS011;40156;51.080;17.082;2023-08-01T09:10:42;5.35;;;2.63;;
54241;SDS011;40156;51.080;17.082;2023-08-01T09:13:10;5.50;;;2.65;;
54241;SDS011;40156;51.080;17.082;2023-08-01T09:15:37;4.57;;;2.50;;
54241;SDS011;40156;51.080;17.082;2023-08-01T09:18:07;4.10;;;2.45;;
54241;SDS011;40156;51.080;17.082;2023-08-01T09:20:41;7.07;;;2.85;;
54241;SDS011;40156;51.080;17.082;2023-08-01T09:23:09;4.28;;;2.47;;
54241;SDS011;40156;51.080;17.082;2023-08-01T09:25:37;8.80;;;5.03;;
54241;SDS011;40156;51.080;17.082;2023-08-01T09:28:21;5.85;;;3.90;;
54241;SDS011;40156;51.080;17.082;2023-08-01T09:30:53;6.93;;;3.38;;
54241;SDS011;40156;51.080;17.082;2023-08-01T09:33:21;5.13;;;2.25;;
54241;SDS011;40156;51.080;17.082;2023-08-01T09:35:51;3.40;;;2.33;;
54241;SDS011;40156;51.080;17.082;2023-08-01T09:38:19;3.65;;;2.13;;
54241;SDS011;40156;51.080;17.082;2023-08-01T09:40:47;3.47;;;2.40;;
54241;SDS011;40156;51.080;17.082;2023-08-01T09:43:14;5.07;;;2.53;;
54241;SDS011;40156;51.080;17.082;2023-08-01T09:45:54;5.20;;;2.45;;
54241;SDS011;40156;51.080;17.082;2023-08-01T09:48:23;4.93;;;2.67;;
54241;SDS011;40156;51.080;17.082;2023-08-01T09:50:50;3.95;;;2.60;;
54241;SDS011;40156;51.080;17.082;2023-08-01T09:53:18;6.70;;;2.70;;
54241;SDS011;40156;51.080;17.082;2023-08-01T09:55:45;4.40;;;2.42;;
54241;SDS011;40156;51.080;17.082;2023-08-01T09:58:13;4.30;;;2.70;;
54241;SDS011;40156;51.080;17.082;2023-08-01T10:00:41;3.00;;;2.33;;
54241;SDS011;40156;51.080;17.082;2023-08-01T10:03:08;7.43;;;2.42;;
54241;SDS011;40156;51.080;17.082;2023-08-01T10:05:36;4.40;;;2.60;;
54241;SDS011;40156;51.080;17.082;2023-08-01T10:08:06;3.90;;;2.58;;
54241;SDS011;40156;51.080;17.082;2023-08-01T10:10:33;4.88;;;2.33;;
54241;SDS011;40156;51.080;17.082;2023-08-01T10:13:02;5.35;;;2.70;;
54241;SDS011;40156;51.080;17.082;2023-08-01T10:15:29;5.70;;;2.20;;
54241;SDS011;40156;51.080;17.082;2023-08-01T10:17:57;4.43;;;2.60;;
54241;SDS011;40156;51.080;17.082;2023-08-01T10:20:25;5.65;;;2.47;;
54241;SDS011;40156;51.080;17.082;2023-08-01T10:22:53;4.15;;;2.50;;
54241;SDS011;40156;51.080;17.082;2023-08-01T10:25:21;6.15;;;2.60;;
54241;SDS011;40156;51.080;17.082;2023-08-01T10:28:05;6.00;;;2.17;;
54241;SDS011;40156;51.080;17.082;2023-08-01T10:30:32;4.93;;;2.33;;
54241;SDS011;40156;51.080;17.082;2023-08-01T10:33:00;5.45;;;2.45;;
54241;SDS011;40156;51.080;17.082;2023-08-01T10:35:34;3.53;;;2.17;;
54241;SDS011;40156;51.080;17.082;2023-08-01T10:38:06;2.92;;;2.20;;
54241;SDS011;40156;51.080;17.082;2023-08-01T10:40:34;2.67;;;1.88;;
54241;SDS011;40156;51.080;17.082;2023-08-01T10:43:02;3.63;;;2.35;;
54241;SDS011;40156;51.080;17.082;2023-08-01T10:45:29;3.13;;;2.10;;
54241;SDS011;40156;51.080;17.082;2023-08-01T10:48:07;3.28;;;2.03;;
54241;SDS011;40156;51.080;17.082;2023-08-01T10:50:35;3.38;;;1.92;;
54241;SDS011;40156;51.080;17.082;2023-08-01T10:53:04;4.32;;;2.45;;
54241;SDS011;40156;51.080;17.082;2023-08-01T10:55:45;5.57;;;2.30;;
54241;SDS011;40156;51.080;17.082;2023-08-01T10:58:12;4.35;;;2.25;;
54241;SDS011;40156;51.080;17.082;2023-08-01T11:00:41;4.57;;;2.47;;
54241;SDS011;40156;51.080;17.082;2023-08-01T11:03:09;4.15;;;2.20;;
54241;SDS011;40156;51.080;17.082;2023-08-01T11:05:37;4.82;;;2.30;;
54241;SDS011;40156;51.080;17.082;2023-08-01T11:08:04;4.38;;;2.20;;
54241;SDS011;40156;51.080;17.082;2023-08-01T11:10:32;4.47;;;2.35;;
54241;SDS011;40156;51.080;17.082;2023-08-01T11:13:00;3.00;;;1.98;;
54241;SDS011;40156;51.080;17.082;2023-08-01T11:15:27;5.93;;;2.30;;
54241;SDS011;40156;51.080;17.082;2023-08-01T11:17:55;3.33;;;2.00;;
54241;SDS011;40156;51.080;17.082;2023-08-01T11:20:23;3.63;;;2.20;;
54241;SDS011;40156;51.080;17.082;2023-08-01T11:22:58;5.63;;;2.50;;
54241;SDS011;40156;51.080;17.082;2023-08-01T11:25:33;3.67;;;1.90;;
54241;SDS011;40156;51.080;17.082;2023-08-01T11:28:02;3.65;;;1.70;;
54241;SDS011;40156;51.080;17.082;2023-08-01T11:30:31;2.63;;;1.92;;
54241;SDS011;40156;51.080;17.082;2023-08-01T11:32:58;3.60;;;1.95;;
54241;SDS011;40156;51.080;17.082;2023-08-01T11:35:26;3.40;;;1.73;;
54241;SDS011;40156;51.080;17.082;2023-08-01T11:37:54;2.70;;;1.83;;
54241;SDS011;40156;51.080;17.082;2023-08-01T11:40:22;2.92;;;2.05;;
54241;SDS011;40156;51.080;17.082;2023-08-01T11:42:50;2.85;;;2.35;;
54241;SDS011;40156;51.080;17.082;2023-08-01T11:45:17;2.67;;;2.20;;
54241;SDS011;40156;51.080;17.082;2023-08-01T11:47:46;2.85;;;2.10;;
54241;SDS011;40156;51.080;17.082;2023-08-01T11:50:14;3.97;;;2.03;;
54241;SDS011;40156;51.080;17.082;2023-08-01T11:52:47;3.55;;;2.00;;
54241;SDS011;40156;51.080;17.082;2023-08-01T11:55:19;2.35;;;1.73;;
54241;SDS011;40156;51.080;17.082;2023-08-01T11:57:53;4.88;;;1.83;;
54241;SDS011;40156;51.080;17.082;2023-08-01T12:00:21;5.40;;;2.17;;
54241;SDS011;40156;51.080;17.082;2023-08-01T12:02:49;2.20;;;1.70;;
54241;SDS011;40156;51.080;17.082;2023-08-01T12:05:23;4.13;;;1.98;;
54241;SDS011;40156;51.080;17.082;2023-08-01T12:07:51;3.03;;;1.75;;
54241;SDS011;40156;51.080;17.082;2023-08-01T12:10:18;3.33;;;1.60;;
54241;SDS011;40156;51.080;17.082;2023-08-01T12:12:46;2.03;;;1.50;;
54241;SDS011;40156;51.080;17.082;2023-08-01T12:15:14;2.08;;;1.85;;
54241;SDS011;40156;51.080;17.082;2023-08-01T12:17:42;2.90;;;1.65;;
54241;SDS011;40156;51.080;17.082;2023-08-01T12:20:09;3.15;;;1.80;;
54241;SDS011;40156;51.080;17.082;2023-08-01T12:22:37;2.08;;;1.60;;
54241;SDS011;40156;51.080;17.082;2023-08-01T12:25:05;2.60;;;1.70;;
54241;SDS011;40156;51.080;17.082;2023-08-01T12:27:32;2.28;;;1.50;;
54241;SDS011;40156;51.080;17.082;2023-08-01T12:30:00;3.53;;;1.45;;
54241;SDS011;40156;51.080;17.082;2023-08-01T12:32:28;4.57;;;2.20;;
54241;SDS011;40156;51.080;17.082;2023-08-01T12:34:55;2.30;;;1.77;;
54241;SDS011;40156;51.080;17.082;2023-08-01T12:37:23;1.90;;;1.48;;
54241;SDS011;40156;51.080;17.082;2023-08-01T12:39:50;4.55;;;1.60;;
54241;SDS011;40156;51.080;17.082;2023-08-01T12:42:18;5.68;;;1.80;;
54241;SDS011;40156;51.080;17.082;2023-08-01T12:44:45;2.95;;;2.15;;
54241;SDS011;40156;51.080;17.082;2023-08-01T12:47:13;2.70;;;1.40;;
54241;SDS011;40156;51.080;17.082;2023-08-01T12:49:40;2.20;;;1.30;;
54241;SDS011;40156;51.080;17.082;2023-08-01T12:52:08;1.60;;;1.40;;
54241;SDS011;40156;51.080;17.082;2023-08-01T12:54:35;4.38;;;1.40;;
54241;SDS011;40156;51.080;17.082;2023-08-01T12:57:03;2.08;;;1.05;;
54241;SDS011;40156;51.080;17.082;2023-08-01T12:59:30;1.58;;;1.20;;
54241;SDS011;40156;51.080;17.082;2023-08-01T13:01:58;2.00;;;1.60;;
54241;SDS011;40156;51.080;17.082;2023-08-01T13:04:25;4.13;;;1.52;;
54241;SDS011;40156;51.080;17.082;2023-08-01T13:06:53;1.65;;;1.25;;
54241;SDS011;40156;51.080;17.082;2023-08-01T13:09:20;2.03;;;1.30;;
54241;SDS011;40156;51.080;17.082;2023-08-01T13:11:48;1.17;;;1.08;;
54241;SDS011;40156;51.080;17.082;2023-08-01T13:14:15;2.58;;;1.60;;
54241;SDS011;40156;51.080;17.082;2023-08-01T13:16:43;3.53;;;1.58;;
54241;SDS011;40156;51.080;17.082;2023-08-01T13:19:10;2.05;;;1.15;;
54241;SDS011;40156;51.080;17.082;2023-08-01T13:21:38;1.50;;;1.10;;
54241;SDS011;40156;51.080;17.082;2023-08-01T13:24:05;1.20;;;1.10;;
54241;SDS011;40156;51.080;17.082;2023-08-01T13:26:33;2.28;;;1.30;;
54241;SDS011;40156;51.080;17.082;2023-08-01T13:29:01;3.72;;;1.23;;
54241;SDS011;40156;51.080;17.082;2023-08-01T13:31:28;2.75;;;1.30;;
54241;SDS011;40156;51.080;17.082;2023-08-01T13:33:56;1.90;;;1.23;;
54241;SDS011;40156;51.080;17.082;2023-08-01T13:36:24;1.55;;;1.00;;
54241;SDS011;40156;51.080;17.082;2023-08-01T13:38:51;2.05;;;1.17;;
54241;SDS011;40156;51.080;17.082;2023-08-01T13:41:19;3.05;;;1.00;;
54241;SDS011;40156;51.080;17.082;2023-08-01T13:43:46;2.28;;;1.15;;
54241;SDS011;40156;51.080;17.082;2023-08-01T13:46:16;2.03;;;1.23;;
54241;SDS011;40156;51.080;17.082;2023-08-01T13:48:55;3.90;;;1.25;;
54241;SDS011;40156;51.080;17.082;2023-08-01T13:51:24;2.80;;;1.02;;
54241;SDS011;40156;51.080;17.082;2023-08-01T13:53:51;1.38;;;1.20;;
54241;SDS011;40156;51.080;17.082;2023-08-01T13:56:19;1.98;;;1.33;;
54241;SDS011;40156;51.080;17.082;2023-08-01T13:58:46;3.22;;;1.40;;
54241;SDS011;40156;51.080;17.082;2023-08-01T14:01:14;5.75;;;1.20;;
54241;SDS011;40156;51.080;17.082;2023-08-01T14:03:41;2.70;;;1.00;;
54241;SDS011;40156;51.080;17.082;2023-08-01T14:06:10;2.08;;;1.20;;
54241;SDS011;40156;51.080;17.082;2023-08-01T14:08:37;3.20;;;1.30;;
54241;SDS011;40156;51.080;17.082;2023-08-01T14:11:06;3.35;;;1.25;;
54241;SDS011;40156;51.080;17.082;2023-08-01T14:13:33;3.95;;;1.10;;
54241;SDS011;40156;51.080;17.082;2023-08-01T14:16:02;6.35;;;1.75;;
54241;SDS011;40156;51.080;17.082;2023-08-01T14:18:29;3.83;;;1.30;;
54241;SDS011;40156;51.080;17.082;2023-08-01T14:20:57;4.57;;;2.42;;
54241;SDS011;40156;51.080;17.082;2023-08-01T14:23:24;3.17;;;1.10;;
54241;SDS011;40156;51.080;17.082;2023-08-01T14:25:52;2.30;;;1.33;;
54241;SDS011;40156;51.080;17.082;2023-08-01T14:28:20;2.47;;;1.30;;
54241;SDS011;40156;51.080;17.082;2023-08-01T14:30:47;2.58;;;1.23;;
54241;SDS011;40156;51.080;17.082;2023-08-01T14:33:15;1.98;;;1.40;;
54241;SDS011;40156;51.080;17.082;2023-08-01T14:35:44;2.55;;;1.17;;
54241;SDS011;40156;51.080;17.082;2023-08-01T14:38:12;3.17;;;1.40;;